Time;durP1;ratioP1;P1;durP2;ratioP2;P2;SDS_P1;SDS_P2;PMS_P1;PMS_P2;Temp;Humidity;BMP_temperature;BMP_pressure;BME280_temperature;BME280_humidity;BME280_pressure;Samples;Min_cycle;Max_cycle;Signal;HPM_P1;HPM_P2
2022/03/11 00:00:29;;;;;;;12.20;5.38;;;;;;;;;;6280975;22;20016;-91
2022/03/11 00:02:57;;;;;;;10.80;5.65;;;;;;;;;;6280756;22;20045;-91
2022/03/11 00:05:25;;;;;;;11.50;5.60;;;;;;;;;;6283569;22;20030;-90
2022/03/11 00:07:52;;;;;;;12.18;6.03;;;;;;;;;;6283066;22;20042;-91
2022/03/11 00:10:21;;;;;;;16.05;5.50;;;;;;;;;;6281788;22;20019;-90
2022/03/11 00:12:49;;;;;;;13.27;5.65;;;;;;;;;;6282799;22;20016;-89
2022/03/11 00:15:16;;;;;;;10.73;5.65;;;;;;;;;;6283766;22;20039;-89
2022/03/11 00:17:45;;;;;;;10.50;5.35;;;;;;;;;;6271112;22;20130;-89
2022/03/11 00:20:19;;;;;;;9.85;4.95;;;;;;;;;;6283602;22;20331;-89
2022/03/11 00:22:48;;;;;;;14.85;4.97;;;;;;;;;;6282628;22;20011;-89
2022/03/11 00:25:20;;;;;;;10.73;4.88;;;;;;;;;;6283498;22;20106;-89
2022/03/11 00:27:48;;;;;;;9.80;5.50;;;;;;;;;;6283015;22;20019;-89
2022/03/11 00:30:18;;;;;;;11.13;5.25;;;;;;;;;;6282295;22;20016;-89
2022/03/11 00:32:48;;;;;;;11.13;5.00;;;;;;;;;;6282662;22;20106;-89
2022/03/11 00:35:17;;;;;;;8.98;4.75;;;;;;;;;;6283118;22;20450;-90
2022/03/11 00:37:48;;;;;;;10.40;5.30;;;;;;;;;;6282793;22;20015;-89
2022/03/11 00:40:16;;;;;;;13.32;5.28;;;;;;;;;;6283363;22;20063;-90
2022/03/11 00:42:45;;;;;;;8.85;4.43;;;;;;;;;;6274611;22;20545;-90
2022/03/11 00:45:15;;;;;;;10.50;4.63;;;;;;;;;;6283154;22;20023;-89
2022/03/11 00:47:45;;;;;;;11.43;4.88;;;;;;;;;;6282410;22;20019;-90
2022/03/11 00:50:15;;;;;;;10.25;4.68;;;;;;;;;;6281622;22;20093;-90
2022/03/11 00:52:45;;;;;;;11.43;4.97;;;;;;;;;;6283239;22;20099;-89
2022/03/11 00:55:15;;;;;;;10.50;4.53;;;;;;;;;;6282987;22;20024;-90
2022/03/11 00:57:45;;;;;;;10.65;4.88;;;;;;;;;;6281516;22;20050;-88
2022/03/11 01:00:17;;;;;;;10.07;4.75;;;;;;;;;;6281868;22;20090;-88
2022/03/11 01:02:47;;;;;;;8.73;4.10;;;;;;;;;;6280920;22;20087;-87
2022/03/11 01:05:13;;;;;;;10.98;4.65;;;;;;;;;;6282901;22;20019;-88
2022/03/11 01:07:42;;;;;;;10.88;5.07;;;;;;;;;;6280692;22;20016;-82
2022/03/11 01:10:12;;;;;;;13.50;4.40;;;;;;;;;;6278962;22;20016;-82
2022/03/11 01:12:40;;;;;;;9.35;4.88;;;;;;;;;;6277771;22;20042;-83
2022/03/11 01:15:08;;;;;;;9.68;4.82;;;;;;;;;;6277866;22;20019;-82
2022/03/11 01:17:36;;;;;;;9.55;4.15;;;;;;;;;;6278240;22;20026;-82
2022/03/11 01:20:07;;;;;;;11.20;4.68;;;;;;;;;;6279713;22;20024;-83
2022/03/11 01:22:36;;;;;;;15.52;4.47;;;;;;;;;;6268484;22;20023;-83
2022/03/11 01:25:05;;;;;;;10.93;4.72;;;;;;;;;;6281385;22;20015;-87
2022/03/11 01:27:32;;;;;;;10.05;4.28;;;;;;;;;;6281410;22;20020;-87
2022/03/11 01:29:59;;;;;;;9.82;4.80;;;;;;;;;;6281833;22;20023;-87
2022/03/11 01:32:27;;;;;;;12.18;4.78;;;;;;;;;;6280990;22;20732;-87
2022/03/11 01:34:55;;;;;;;9.93;4.25;;;;;;;;;;6281522;22;20102;-88
2022/03/11 01:37:24;;;;;;;9.23;3.83;;;;;;;;;;6281493;22;20074;-88
2022/03/11 01:39:51;;;;;;;10.77;4.38;;;;;;;;;;6281998;22;20023;-88
2022/03/11 01:42:19;;;;;;;8.88;4.55;;;;;;;;;;6281187;22;20305;-88
2022/03/11 01:44:47;;;;;;;7.97;4.38;;;;;;;;;;6281338;22;20142;-88
2022/03/11 01:47:15;;;;;;;10.32;4.93;;;;;;;;;;6280588;22;20020;-88
2022/03/11 01:49:44;;;;;;;10.85;4.78;;;;;;;;;;6281768;22;20297;-88
2022/03/11 01:52:12;;;;;;;11.63;4.40;;;;;;;;;;6281669;22;20026;-90
2022/03/11 01:54:42;;;;;;;12.05;5.07;;;;;;;;;;6283075;22;20024;-90
2022/03/11 01:57:10;;;;;;;10.18;4.75;;;;;;;;;;6282473;22;20023;-90
2022/03/11 01:59:43;;;;;;;13.68;4.93;;;;;;;;;;6282643;22;20024;-90
2022/03/11 02:02:14;;;;;;;11.70;4.45;;;;;;;;;;6280758;22;20082;-90
2022/03/11 02:04:42;;;;;;;10.93;4.57;;;;;;;;;;6282273;22;20031;-90
2022/03/11 02:07:10;;;;;;;10.32;4.88;;;;;;;;;;6282709;22;20047;-90
2022/03/11 02:09:38;;;;;;;11.07;4.28;;;;;;;;;;6280906;22;20374;-90
2022/03/11 02:12:06;;;;;;;9.55;4.50;;;;;;;;;;6282205;22;20099;-90
2022/03/11 02:14:33;;;;;;;10.57;4.00;;;;;;;;;;6281888;22;20016;-89
2022/03/11 02:17:02;;;;;;;11.90;5.55;;;;;;;;;;6281320;22;20535;-89
2022/03/11 02:19:29;;;;;;;11.35;4.85;;;;;;;;;;6282091;22;20027;-90
2022/03/11 02:21:59;;;;;;;8.27;3.58;;;;;;;;;;6282646;22;20016;-89
2022/03/11 02:24:27;;;;;;;8.18;3.78;;;;;;;;;;6282134;22;20099;-89
2022/03/11 02:26:55;;;;;;;10.05;4.60;;;;;;;;;;6282027;22;20029;-89
2022/03/11 02:29:23;;;;;;;10.70;5.28;;;;;;;;;;6281877;22;20134;-90
2022/03/11 02:31:52;;;;;;;9.35;4.53;;;;;;;;;;6282112;22;20043;-90
2022/03/11 02:34:21;;;;;;;11.52;4.60;;;;;;;;;;6281579;22;20046;-90
2022/03/11 02:36:50;;;;;;;9.82;4.25;;;;;;;;;;6282554;22;20024;-90
2022/03/11 02:39:19;;;;;;;9.40;4.55;;;;;;;;;;6282644;22;20127;-89
2022/03/11 02:41:49;;;;;;;12.05;4.97;;;;;;;;;;6280693;22;20023;-83
2022/03/11 02:44:17;;;;;;;11.88;5.20;;;;;;;;;;6276333;22;20027;-83
2022/03/11 02:46:46;;;;;;;10.27;3.67;;;;;;;;;;6278341;22;20023;-83
2022/03/11 02:49:18;;;;;;;9.75;4.72;;;;;;;;;;6278433;22;20175;-83
2022/03/11 02:51:48;;;;;;;10.90;4.50;;;;;;;;;;6278311;22;20027;-83
2022/03/11 02:54:17;;;;;;;10.15;4.88;;;;;;;;;;6279152;22;20008;-83
2022/03/11 02:56:45;;;;;;;10.48;5.00;;;;;;;;;;6279978;22;20590;-82
2022/03/11 02:59:13;;;;;;;12.10;4.88;;;;;;;;;;6278976;22;20031;-82
2022/03/11 03:01:41;;;;;;;15.73;4.80;;;;;;;;;;6278534;22;20024;-83
2022/03/11 03:04:11;;;;;;;12.32;4.55;;;;;;;;;;6280154;22;20423;-83
2022/03/11 03:06:38;;;;;;;9.57;4.25;;;;;;;;;;6280201;22;20018;-82
2022/03/11 03:09:06;;;;;;;9.63;4.95;;;;;;;;;;6281025;22;20050;-86
2022/03/11 03:11:36;;;;;;;15.43;5.60;;;;;;;;;;6278648;22;20047;-87
2022/03/11 03:14:04;;;;;;;11.73;5.63;;;;;;;;;;6281964;22;20090;-86
2022/03/11 03:16:31;;;;;;;13.35;4.97;;;;;;;;;;6282050;22;20331;-86
2022/03/11 03:19:00;;;;;;;12.25;4.80;;;;;;;;;;6280366;22;20023;-87
2022/03/11 03:21:27;;;;;;;10.90;4.82;;;;;;;;;;6281591;22;20020;-87
2022/03/11 03:23:55;;;;;;;14.82;6.10;;;;;;;;;;6281308;22;20057;-86
2022/03/11 03:26:23;;;;;;;11.10;4.72;;;;;;;;;;6281997;22;20027;-86
2022/03/11 03:28:52;;;;;;;9.68;4.82;;;;;;;;;;6281977;22;20019;-86
2022/03/11 03:31:22;;;;;;;10.93;4.40;;;;;;;;;;6280530;22;20019;-83
2022/03/11 03:33:51;;;;;;;12.27;5.15;;;;;;;;;;6279158;22;20034;-83
2022/03/11 03:36:19;;;;;;;13.60;5.30;;;;;;;;;;6280564;22;20023;-83
2022/03/11 03:38:48;;;;;;;13.20;4.40;;;;;;;;;;6280366;22;20301;-83
2022/03/11 03:41:16;;;;;;;10.60;4.53;;;;;;;;;;6280190;22;20430;-87
2022/03/11 03:43:43;;;;;;;13.07;4.68;;;;;;;;;;6280487;22;20024;-87
2022/03/11 03:46:11;;;;;;;14.80;5.82;;;;;;;;;;6281640;22;20019;-87
2022/03/11 03:48:39;;;;;;;13.90;4.93;;;;;;;;;;6281220;22;20505;-87
2022/03/11 03:51:07;;;;;;;9.27;5.13;;;;;;;;;;6281658;22;20089;-86
2022/03/11 03:53:35;;;;;;;10.98;4.78;;;;;;;;;;6281124;22;20020;-87
2022/03/11 03:56:04;;;;;;;12.57;5.45;;;;;;;;;;6282113;22;20460;-86
2022/03/11 03:58:31;;;;;;;13.75;5.32;;;;;;;;;;6280657;22;20085;-83
2022/03/11 04:00:59;;;;;;;13.43;4.78;;;;;;;;;;6279664;22;20062;-83
2022/03/11 04:03:27;;;;;;;19.08;6.47;;;;;;;;;;6279463;22;20102;-83
2022/03/11 04:06:02;;;;;;;11.98;4.70;;;;;;;;;;6279977;22;20042;-83
2022/03/11 04:08:30;;;;;;;10.82;4.78;;;;;;;;;;6279010;22;20395;-83
2022/03/11 04:10:57;;;;;;;13.23;4.70;;;;;;;;;;6279116;22;20095;-83
2022/03/11 04:13:26;;;;;;;11.15;5.03;;;;;;;;;;6268156;22;20016;-83
2022/03/11 04:15:53;;;;;;;12.48;4.50;;;;;;;;;;6281457;22;20569;-87
2022/03/11 04:18:22;;;;;;;12.30;4.95;;;;;;;;;;6282449;22;20477;-88
2022/03/11 04:20:49;;;;;;;15.93;4.47;;;;;;;;;;6282907;22;20034;-87
2022/03/11 04:23:17;;;;;;;11.98;4.78;;;;;;;;;;6282740;22;20473;-88
2022/03/11 04:25:45;;;;;;;12.13;5.40;;;;;;;;;;6282494;22;20098;-88
2022/03/11 04:28:13;;;;;;;12.82;5.40;;;;;;;;;;6282397;22;20015;-88
2022/03/11 04:30:41;;;;;;;12.90;5.60;;;;;;;;;;6282480;22;20029;-88
2022/03/11 04:33:09;;;;;;;13.43;6.05;;;;;;;;;;6282096;22;20073;-88
2022/03/11 04:35:38;;;;;;;13.32;5.18;;;;;;;;;;6280712;22;20012;-88
2022/03/11 04:38:05;;;;;;;16.35;5.60;;;;;;;;;;6279673;22;20093;-83
2022/03/11 04:40:33;;;;;;;13.25;5.60;;;;;;;;;;6280115;22;20027;-83
2022/03/11 04:43:02;;;;;;;13.80;4.70;;;;;;;;;;6279359;22;20054;-83
2022/03/11 04:45:28;;;;;;;13.18;5.28;;;;;;;;;;6278931;22;20118;-83
2022/03/11 04:47:56;;;;;;;13.38;4.70;;;;;;;;;;6278235;22;20073;-83
2022/03/11 04:50:23;;;;;;;13.05;5.07;;;;;;;;;;6278294;22;20020;-82
2022/03/11 04:52:52;;;;;;;10.95;5.47;;;;;;;;;;6279955;22;20182;-88
2022/03/11 04:55:20;;;;;;;15.38;5.97;;;;;;;;;;6282246;22;20455;-88
2022/03/11 04:57:49;;;;;;;8.50;4.65;;;;;;;;;;6282634;22;20023;-87
2022/03/11 05:00:18;;;;;;;13.05;5.82;;;;;;;;;;6282776;22;20087;-88
2022/03/11 05:02:45;;;;;;;13.05;4.90;;;;;;;;;;6281945;22;20066;-88
2022/03/11 05:05:15;;;;;;;12.95;5.97;;;;;;;;;;6282010;22;20023;-88
2022/03/11 05:07:44;;;;;;;9.13;4.25;;;;;;;;;;6282565;22;20020;-87
2022/03/11 05:10:15;;;;;;;18.85;6.13;;;;;;;;;;6283142;22;20026;-90
2022/03/11 05:12:43;;;;;;;9.52;4.35;;;;;;;;;;6282853;22;20024;-91
2022/03/11 05:15:12;;;;;;;13.55;6.18;;;;;;;;;;6282984;22;20020;-90
2022/03/11 05:17:39;;;;;;;10.48;5.03;;;;;;;;;;6282464;22;20085;-90
2022/03/11 05:20:08;;;;;;;14.63;5.82;;;;;;;;;;6282985;22;20020;-90
2022/03/11 05:22:35;;;;;;;13.25;4.55;;;;;;;;;;6282214;22;20016;-90
2022/03/11 05:25:04;;;;;;;11.43;4.32;;;;;;;;;;6282992;22;20015;-90
2022/03/11 05:27:31;;;;;;;13.82;5.82;;;;;;;;;;6282205;22;20434;-89
2022/03/11 05:30:00;;;;;;;10.05;4.80;;;;;;;;;;6283061;22;20212;-89
2022/03/11 05:32:29;;;;;;;13.40;5.53;;;;;;;;;;6282533;22;20016;-90
2022/03/11 05:34:57;;;;;;;11.13;4.40;;;;;;;;;;6283111;22;20018;-89
2022/03/11 05:37:25;;;;;;;7.93;4.75;;;;;;;;;;6282622;22;20020;-90
2022/03/11 05:39:53;;;;;;;11.18;4.85;;;;;;;;;;6282317;22;20020;-89
2022/03/11 05:42:21;;;;;;;24.45;5.40;;;;;;;;;;6275808;22;20019;-89
2022/03/11 05:44:49;;;;;;;13.40;5.97;;;;;;;;;;6282319;22;20570;-89
2022/03/11 05:47:17;;;;;;;13.32;5.97;;;;;;;;;;6282065;22;20343;-90
2022/03/11 05:49:45;;;;;;;10.90;5.65;;;;;;;;;;6282280;22;20024;-88
2022/03/11 05:52:13;;;;;;;13.43;4.95;;;;;;;;;;6282174;22;20062;-89
2022/03/11 05:54:41;;;;;;;9.93;4.65;;;;;;;;;;6282281;22;20467;-89
2022/03/11 05:57:10;;;;;;;12.15;5.28;;;;;;;;;;6282252;22;20470;-88
2022/03/11 05:59:38;;;;;;;14.38;5.43;;;;;;;;;;6282753;22;20142;-89
2022/03/11 06:02:06;;;;;;;12.27;4.90;;;;;;;;;;6281960;22;20023;-88
2022/03/11 06:04:35;;;;;;;13.18;5.43;;;;;;;;;;6270033;22;20474;-89
2022/03/11 06:07:03;;;;;;;11.05;4.70;;;;;;;;;;6282317;22;20070;-88
2022/03/11 06:09:30;;;;;;;12.38;4.53;;;;;;;;;;6282223;22;20020;-83
2022/03/11 06:11:58;;;;;;;12.98;5.35;;;;;;;;;;6276465;22;20413;-83
2022/03/11 06:14:26;;;;;;;9.18;5.25;;;;;;;;;;6277835;22;20092;-83
2022/03/11 06:16:54;;;;;;;12.82;5.53;;;;;;;;;;6276290;22;20107;-83
2022/03/11 06:19:22;;;;;;;9.23;3.40;;;;;;;;;;6277188;22;20035;-83
2022/03/11 06:21:50;;;;;;;9.38;4.45;;;;;;;;;;6276471;22;20355;-83
2022/03/11 06:24:18;;;;;;;7.28;4.28;;;;;;;;;;6277689;22;20107;-83
2022/03/11 06:26:46;;;;;;;12.95;5.32;;;;;;;;;;6277902;22;20020;-83
2022/03/11 06:29:15;;;;;;;17.20;5.43;;;;;;;;;;6278896;22;20525;-83
2022/03/11 06:31:42;;;;;;;11.25;4.75;;;;;;;;;;6278381;22;20047;-82
2022/03/11 06:34:10;;;;;;;10.48;4.80;;;;;;;;;;6277219;22;20102;-83
2022/03/11 06:36:38;;;;;;;12.13;4.60;;;;;;;;;;6277593;22;20103;-83
2022/03/11 06:39:07;;;;;;;13.38;5.18;;;;;;;;;;6280563;22;20045;-83
2022/03/11 06:41:34;;;;;;;13.10;5.00;;;;;;;;;;6277922;22;20019;-83
2022/03/11 06:44:02;;;;;;;12.02;5.03;;;;;;;;;;6280068;22;20425;-83
2022/03/11 06:46:30;;;;;;;15.48;5.10;;;;;;;;;;6278412;22;20339;-83
2022/03/11 06:48:58;;;;;;;13.55;5.55;;;;;;;;;;6280028;22;20094;-83
2022/03/11 06:51:26;;;;;;;9.18;4.82;;;;;;;;;;6279932;22;20023;-82
2022/03/11 06:53:58;;;;;;;12.10;5.20;;;;;;;;;;6279054;22;20439;-83
2022/03/11 06:56:26;;;;;;;11.45;4.28;;;;;;;;;;6279758;22;20106;-83
2022/03/11 06:58:55;;;;;;;11.77;5.07;;;;;;;;;;6279512;22;20107;-83
2022/03/11 07:01:24;;;;;;;13.63;5.10;;;;;;;;;;6279368;22;20624;-83
2022/03/11 07:03:52;;;;;;;14.20;5.63;;;;;;;;;;6278227;22;20023;-83
2022/03/11 07:06:20;;;;;;;12.52;4.80;;;;;;;;;;6280022;22;20465;-83
2022/03/11 07:08:48;;;;;;;11.70;4.65;;;;;;;;;;6279123;22;20031;-83
2022/03/11 07:11:16;;;;;;;11.32;4.93;;;;;;;;;;6280171;22;20020;-83
2022/03/11 07:13:44;;;;;;;12.70;5.38;;;;;;;;;;6280487;22;20026;-83
2022/03/11 07:16:13;;;;;;;17.13;4.93;;;;;;;;;;6279719;22;20019;-83
2022/03/11 07:18:45;;;;;;;8.13;4.28;;;;;;;;;;6279437;22;20035;-83
2022/03/11 07:21:15;;;;;;;9.43;4.28;;;;;;;;;;6280578;22;20085;-83
2022/03/11 07:23:46;;;;;;;6.90;2.97;;;;;;;;;;6280033;22;20016;-82
2022/03/11 07:26:14;;;;;;;9.95;4.75;;;;;;;;;;6279452;22;20456;-82
2022/03/11 07:28:42;;;;;;;12.40;4.88;;;;;;;;;;6279312;22;20099;-83
2022/03/11 07:31:10;;;;;;;13.95;5.00;;;;;;;;;;6277258;22;20336;-83
2022/03/11 07:33:38;;;;;;;11.15;4.57;;;;;;;;;;6279082;22;20610;-83
2022/03/11 07:36:06;;;;;;;19.17;5.45;;;;;;;;;;6281579;22;20033;-83
2022/03/11 07:38:34;;;;;;;19.20;6.07;;;;;;;;;;6280762;22;20039;-83
2022/03/11 07:41:02;;;;;;;16.02;5.22;;;;;;;;;;6280884;22;20028;-83
2022/03/11 07:43:30;;;;;;;10.80;4.22;;;;;;;;;;6276765;22;20027;-83
2022/03/11 07:45:59;;;;;;;8.90;5.13;;;;;;;;;;6277568;22;20077;-81
2022/03/11 07:48:26;;;;;;;12.63;4.28;;;;;;;;;;6275039;22;20019;-80
2022/03/11 07:50:54;;;;;;;11.45;4.20;;;;;;;;;;6279319;22;20453;-80
2022/03/11 07:53:22;;;;;;;13.35;4.32;;;;;;;;;;6279946;22;20030;-80
2022/03/11 07:55:50;;;;;;;12.82;4.43;;;;;;;;;;6277582;22;20088;-80
2022/03/11 07:58:21;;;;;;;14.93;4.75;;;;;;;;;;6279084;22;20534;-80
2022/03/11 08:00:48;;;;;;;11.80;5.15;;;;;;;;;;6278353;22;20019;-80
2022/03/11 08:03:21;;;;;;;11.05;5.20;;;;;;;;;;6276902;22;20127;-80
2022/03/11 08:05:48;;;;;;;11.13;4.60;;;;;;;;;;6278406;22;20047;-80
2022/03/11 08:08:16;;;;;;;11.88;5.30;;;;;;;;;;6278022;22;20090;-80
2022/03/11 08:10:44;;;;;;;11.32;4.80;;;;;;;;;;6278202;22;20502;-80
2022/03/11 08:13:34;;;;;;;8.80;3.70;;;;;;;;;;6279144;22;20024;-80
2022/03/11 08:16:03;;;;;;;14.15;4.30;;;;;;;;;;6277783;22;20065;-80
2022/03/11 08:18:31;;;;;;;9.77;5.03;;;;;;;;;;6276613;22;20024;-80
2022/03/11 08:20:59;;;;;;;9.45;4.28;;;;;;;;;;6278792;22;20011;-80
2022/03/11 08:23:27;;;;;;;7.32;3.55;;;;;;;;;;6277026;22;20026;-80
2022/03/11 08:25:55;;;;;;;12.25;4.70;;;;;;;;;;6278249;22;20026;-80
2022/03/11 08:28:24;;;;;;;11.70;4.90;;;;;;;;;;6276532;22;20015;-80
2022/03/11 08:30:52;;;;;;;10.65;4.43;;;;;;;;;;6277255;22;20364;-80
2022/03/11 08:33:22;;;;;;;11.52;4.75;;;;;;;;;;6276125;22;20046;-80
2022/03/11 08:36:09;;;;;;;12.50;5.10;;;;;;;;;;6277531;22;20095;-80
2022/03/11 08:38:40;;;;;;;10.77;4.78;;;;;;;;;;6276868;22;20067;-80
2022/03/11 08:41:08;;;;;;;16.60;5.35;;;;;;;;;;6277119;22;20114;-80
2022/03/11 08:43:38;;;;;;;10.93;3.85;;;;;;;;;;6277683;22;20081;-80
2022/03/11 08:46:07;;;;;;;10.77;4.47;;;;;;;;;;6276610;22;20024;-80
2022/03/11 08:48:36;;;;;;;13.38;4.55;;;;;;;;;;6274822;22;20050;-81
2022/03/11 08:51:04;;;;;;;10.65;5.25;;;;;;;;;;6277899;22;20022;-80
2022/03/11 08:53:31;;;;;;;10.48;4.88;;;;;;;;;;6277716;22;20024;-80
2022/03/11 08:55:59;;;;;;;15.18;4.75;;;;;;;;;;6277608;22;20047;-80
2022/03/11 08:58:27;;;;;;;20.70;5.10;;;;;;;;;;6277199;22;20061;-80
2022/03/11 09:00:56;;;;;;;11.80;4.32;;;;;;;;;;6275556;22;20319;-80
2022/03/11 09:03:25;;;;;;;10.38;4.05;;;;;;;;;;6276040;22;20339;-81
2022/03/11 09:05:53;;;;;;;10.60;5.00;;;;;;;;;;6275919;22;20062;-81
2022/03/11 09:08:21;;;;;;;12.65;4.63;;;;;;;;;;6277709;22;20034;-81
2022/03/11 09:10:49;;;;;;;12.50;4.55;;;;;;;;;;6276977;22;20418;-81
2022/03/11 09:13:17;;;;;;;13.60;5.13;;;;;;;;;;6277407;22;20122;-81
2022/03/11 09:15:46;;;;;;;11.07;5.28;;;;;;;;;;6275593;22;20091;-81
2022/03/11 09:18:16;;;;;;;14.15;5.07;;;;;;;;;;6276438;22;20069;-81
2022/03/11 09:20:47;;;;;;;11.93;4.65;;;;;;;;;;6275619;22;20016;-81
2022/03/11 09:23:18;;;;;;;14.90;5.55;;;;;;;;;;6275431;22;20019;-81
2022/03/11 09:25:45;;;;;;;11.82;5.47;;;;;;;;;;6276833;22;20012;-81
2022/03/11 09:28:13;;;;;;;11.30;5.10;;;;;;;;;;6275677;22;20779;-81
2022/03/11 09:30:41;;;;;;;12.20;5.43;;;;;;;;;;6275958;22;20050;-81
2022/03/11 09:33:09;;;;;;;9.80;5.00;;;;;;;;;;6273786;22;20016;-81
2022/03/11 09:35:38;;;;;;;14.70;4.57;;;;;;;;;;6276830;22;20011;-81
2022/03/11 09:38:05;;;;;;;10.52;5.13;;;;;;;;;;6276622;22;20069;-81
2022/03/11 09:40:34;;;;;;;9.88;4.63;;;;;;;;;;6276115;22;20019;-81
2022/03/11 09:43:02;;;;;;;10.73;4.57;;;;;;;;;;6274302;22;20089;-82
2022/03/11 09:45:29;;;;;;;15.75;4.82;;;;;;;;;;6275534;22;20682;-82
2022/03/11 09:47:58;;;;;;;11.07;4.65;;;;;;;;;;6274356;22;20020;-82
2022/03/11 09:50:28;;;;;;;12.27;5.38;;;;;;;;;;6278004;22;20138;-82
2022/03/11 09:52:57;;;;;;;10.68;4.78;;;;;;;;;;6277142;22;20089;-82
2022/03/11 09:55:24;;;;;;;14.38;4.80;;;;;;;;;;6277822;22;20085;-82
2022/03/11 09:57:51;;;;;;;11.02;4.82;;;;;;;;;;6275590;22;20387;-82
2022/03/11 10:00:20;;;;;;;10.65;5.05;;;;;;;;;;6277433;22;20023;-82
2022/03/11 10:02:47;;;;;;;11.77;4.93;;;;;;;;;;6275122;22;20042;-82
2022/03/11 10:05:17;;;;;;;11.15;4.47;;;;;;;;;;6278555;22;20008;-82
2022/03/11 10:08:06;;;;;;;13.73;4.82;;;;;;;;;;6276779;22;20015;-82
2022/03/11 10:10:35;;;;;;;10.38;4.93;;;;;;;;;;6275641;22;20019;-82
2022/03/11 10:13:08;;;;;;;9.93;4.68;;;;;;;;;;6278265;22;20019;-82
2022/03/11 10:15:37;;;;;;;12.93;4.53;;;;;;;;;;6278117;22;20016;-82
2022/03/11 10:18:08;;;;;;;14.05;5.22;;;;;;;;;;6275673;22;20015;-83
2022/03/11 10:20:38;;;;;;;12.27;4.80;;;;;;;;;;6277384;22;20037;-82
2022/03/11 10:23:13;;;;;;;10.88;4.18;;;;;;;;;;6279239;22;20011;-83
2022/03/11 10:25:41;;;;;;;11.25;4.88;;;;;;;;;;6279894;22;20051;-82
2022/03/11 10:28:12;;;;;;;12.13;5.45;;;;;;;;;;6278668;22;20045;-83
2022/03/11 10:30:42;;;;;;;11.05;4.47;;;;;;;;;;6278683;22;20111;-82
2022/03/11 10:33:12;;;;;;;12.10;4.78;;;;;;;;;;6279372;22;20039;-82
2022/03/11 10:35:43;;;;;;;11.23;4.35;;;;;;;;;;6278154;22;20095;-82
2022/03/11 10:38:26;;;;;;;9.98;4.20;;;;;;;;;;6277168;22;20023;-82
2022/03/11 10:40:57;;;;;;;10.05;4.53;;;;;;;;;;6278729;22;20016;-82
2022/03/11 10:43:28;;;;;;;9.13;4.43;;;;;;;;;;6279388;22;20016;-82
2022/03/11 10:46:06;;;;;;;19.48;7.05;;;;;;;;;;6278879;22;20098;-82
2022/03/11 10:48:49;;;;;;;9.45;4.20;;;;;;;;;;6279568;22;20046;-82
2022/03/11 10:51:33;;;;;;;12.10;4.30;;;;;;;;;;6280149;22;20039;-82
2022/03/11 10:54:01;;;;;;;9.95;4.35;;;;;;;;;;6279233;22;20019;-82
2022/03/11 10:56:33;;;;;;;15.45;4.78;;;;;;;;;;6279807;22;20019;-83
2022/03/11 10:59:20;;;;;;;9.13;3.92;;;;;;;;;;6279775;22;20020;-82
2022/03/11 11:01:52;;;;;;;10.43;4.30;;;;;;;;;;6277646;22;20093;-83
2022/03/11 11:04:21;;;;;;;12.70;4.35;;;;;;;;;;6277237;22;20030;-82
2022/03/11 11:06:49;;;;;;;11.88;4.13;;;;;;;;;;6278637;22;20118;-83
2022/03/11 11:09:18;;;;;;;13.23;5.22;;;;;;;;;;6278040;22;20024;-84
2022/03/11 11:11:45;;;;;;;11.43;4.32;;;;;;;;;;6278937;22;20046;-82
2022/03/11 11:14:13;;;;;;;11.07;4.88;;;;;;;;;;6277732;22;20514;-83
2022/03/11 11:16:43;;;;;;;10.85;4.57;;;;;;;;;;6277222;22;20347;-82
2022/03/11 11:19:13;;;;;;;11.13;4.38;;;;;;;;;;6276872;22;20019;-82
2022/03/11 11:21:43;;;;;;;11.05;4.50;;;;;;;;;;6278740;22;20038;-82
2022/03/11 11:24:22;;;;;;;12.02;5.05;;;;;;;;;;6278426;22;20103;-82
2022/03/11 11:26:51;;;;;;;10.85;4.55;;;;;;;;;;6276629;22;20024;-82
2022/03/11 11:29:25;;;;;;;8.70;3.53;;;;;;;;;;6278718;22;20134;-82
2022/03/11 11:31:53;;;;;;;8.90;4.10;;;;;;;;;;6276702;22;20073;-82
2022/03/11 11:34:34;;;;;;;10.40;4.40;;;;;;;;;;6276908;22;20023;-82
2022/03/11 11:37:03;;;;;;;10.80;4.75;;;;;;;;;;6278349;22;20451;-82
2022/03/11 11:39:37;;;;;;;11.63;4.78;;;;;;;;;;6276139;22;20035;-82
2022/03/11 11:42:11;;;;;;;7.85;4.25;;;;;;;;;;6277335;22;20350;-82
2022/03/11 11:44:44;;;;;;;8.82;4.10;;;;;;;;;;6278532;22;20015;-82
2022/03/11 11:47:15;;;;;;;11.63;4.32;;;;;;;;;;6275718;22;20027;-82
2022/03/11 11:49:52;;;;;;;8.90;4.07;;;;;;;;;;6276719;22;20024;-82
2022/03/11 11:52:29;;;;;;;8.88;4.28;;;;;;;;;;6277517;22;20047;-82
2022/03/11 11:55:19;;;;;;;8.23;4.43;;;;;;;;;;6277863;22;20495;-82
2022/03/11 11:57:48;;;;;;;10.00;4.57;;;;;;;;;;6279416;22;20118;-82
2022/03/11 12:00:26;;;;;;;10.05;4.63;;;;;;;;;;6278223;22;20024;-82
2022/03/11 12:02:54;;;;;;;9.98;4.45;;;;;;;;;;6275910;22;20379;-84
2022/03/11 12:05:44;;;;;;;9.52;4.30;;;;;;;;;;6279490;22;20077;-83
2022/03/11 12:08:34;;;;;;;9.60;4.03;;;;;;;;;;6279378;22;20075;-82
2022/03/11 12:11:01;;;;;;;12.77;4.40;;;;;;;;;;6262005;22;20043;-82
2022/03/11 12:13:37;;;;;;;7.38;3.40;;;;;;;;;;6277287;22;20034;-82
2022/03/11 12:16:21;;;;;;;9.23;4.10;;;;;;;;;;6276777;22;20420;-82
2022/03/11 12:18:49;;;;;;;11.65;4.80;;;;;;;;;;6277551;22;20027;-82
2022/03/11 12:21:39;;;;;;;12.13;4.75;;;;;;;;;;6277900;22;20042;-82
2022/03/11 12:24:35;;;;;;;10.38;4.25;;;;;;;;;;6278152;22;20078;-82
2022/03/11 12:27:03;;;;;;;11.15;4.18;;;;;;;;;;6277242;22;20447;-82
2022/03/11 12:29:35;;;;;;;11.70;4.70;;;;;;;;;;6277178;22;20066;-82
2022/03/11 12:32:07;;;;;;;9.55;4.15;;;;;;;;;;6275257;22;20107;-82
2022/03/11 12:34:34;;;;;;;13.15;4.60;;;;;;;;;;6276296;22;20446;-82
2022/03/11 12:37:02;;;;;;;13.20;4.60;;;;;;;;;;6277201;22;20028;-82
2022/03/11 12:39:30;;;;;;;9.82;4.93;;;;;;;;;;6276668;22;20030;-82
2022/03/11 12:41:58;;;;;;;10.73;4.40;;;;;;;;;;6276334;22;20018;-82
2022/03/11 12:44:27;;;;;;;10.90;4.13;;;;;;;;;;6278678;22;20047;-82
2022/03/11 12:46:54;;;;;;;9.65;3.72;;;;;;;;;;6276930;22;20016;-82
2022/03/11 12:49:26;;;;;;;9.73;3.83;;;;;;;;;;6277183;22;20023;-82
2022/03/11 12:52:16;;;;;;;9.93;4.20;;;;;;;;;;6276543;22;20043;-82
2022/03/11 12:54:44;;;;;;;9.77;4.28;;;;;;;;;;6278824;22;20027;-82
2022/03/11 12:57:12;;;;;;;9.25;4.72;;;;;;;;;;6267097;22;20058;-82
2022/03/11 12:59:42;;;;;;;9.73;4.60;;;;;;;;;;6277852;22;20522;-82
2022/03/11 13:02:10;;;;;;;10.48;4.10;;;;;;;;;;6274839;22;20083;-82
2022/03/11 13:04:42;;;;;;;11.48;4.68;;;;;;;;;;6278384;22;20335;-82
2022/03/11 13:07:28;;;;;;;9.15;3.90;;;;;;;;;;6278195;22;20365;-82
2022/03/11 13:10:21;;;;;;;8.93;3.50;;;;;;;;;;6277276;22;20024;-82
2022/03/11 13:12:54;;;;;;;8.88;3.85;;;;;;;;;;6266571;22;20020;-82
2022/03/11 13:15:27;;;;;;;8.52;4.55;;;;;;;;;;6277634;22;20434;-82
2022/03/11 13:17:57;;;;;;;9.82;4.10;;;;;;;;;;6274509;22;20023;-82
2022/03/11 13:20:40;;;;;;;10.05;4.07;;;;;;;;;;6278266;22;20023;-82
2022/03/11 13:23:14;;;;;;;8.45;3.88;;;;;;;;;;6276736;22;20023;-82
2022/03/11 13:25:46;;;;;;;10.27;4.80;;;;;;;;;;6275503;22;20127;-82
2022/03/11 13:28:20;;;;;;;10.95;4.53;;;;;;;;;;6274922;22;20110;-82
2022/03/11 13:30:49;;;;;;;10.50;4.65;;;;;;;;;;6276949;22;20439;-83
2022/03/11 13:33:34;;;;;;;11.45;3.63;;;;;;;;;;6276534;22;20046;-82
2022/03/11 13:36:25;;;;;;;8.20;3.92;;;;;;;;;;6275287;22;20015;-82
2022/03/11 13:39:22;;;;;;;9.35;3.55;;;;;;;;;;6266086;22;20527;-82
2022/03/11 13:41:56;;;;;;;13.23;5.00;;;;;;;;;;6276647;22;20030;-82
2022/03/11 13:44:31;;;;;;;12.55;4.80;;;;;;;;;;6277486;22;20019;-82
2022/03/11 13:47:02;;;;;;;9.93;4.68;;;;;;;;;;6275122;22;20400;-82
2022/03/11 13:49:40;;;;;;;9.93;4.05;;;;;;;;;;6276139;22;20485;-82
2022/03/11 13:52:11;;;;;;;10.10;4.55;;;;;;;;;;6277062;22;20023;-82
2022/03/11 13:54:43;;;;;;;9.63;4.50;;;;;;;;;;6277427;22;20020;-82
2022/03/11 13:57:16;;;;;;;8.18;4.00;;;;;;;;;;6277322;22;20522;-82
2022/03/11 13:59:46;;;;;;;10.95;4.30;;;;;;;;;;6277791;22;20081;-82
2022/03/11 14:02:19;;;;;;;5.90;2.40;;;;;;;;;;6274491;22;20027;-82
2022/03/11 14:05:14;;;;;;;8.10;3.85;;;;;;;;;;6266496;22;20089;-82
2022/03/11 14:07:44;;;;;;;8.23;4.03;;;;;;;;;;6277186;22;20046;-82
2022/03/11 14:10:20;;;;;;;11.70;4.70;;;;;;;;;;6278044;22;20019;-82
2022/03/11 14:13:06;;;;;;;13.15;4.60;;;;;;;;;;6276897;22;20281;-82
2022/03/11 14:15:37;;;;;;;12.55;3.70;;;;;;;;;;6276206;22;20023;-82
2022/03/11 14:18:08;;;;;;;8.65;3.75;;;;;;;;;;6276246;22;20027;-82
2022/03/11 14:20:56;;;;;;;11.55;4.35;;;;;;;;;;6276470;22;20639;-82
2022/03/11 14:23:24;;;;;;;10.80;4.35;;;;;;;;;;6276802;22;20107;-82
2022/03/11 14:25:52;;;;;;;11.60;4.22;;;;;;;;;;6276444;22;20016;-82
2022/03/11 14:28:20;;;;;;;11.25;4.13;;;;;;;;;;6276241;22;20016;-82
2022/03/11 14:30:48;;;;;;;11.10;4.32;;;;;;;;;;6274828;22;20042;-82
2022/03/11 14:33:17;;;;;;;9.15;4.35;;;;;;;;;;6276074;22;20080;-82
2022/03/11 14:35:45;;;;;;;13.43;4.25;;;;;;;;;;6276698;22;20020;-82
2022/03/11 14:38:12;;;;;;;12.73;4.18;;;;;;;;;;6276435;22;20641;-82
2022/03/11 14:40:41;;;;;;;10.57;3.97;;;;;;;;;;6276667;22;20025;-82
2022/03/11 14:43:10;;;;;;;10.15;4.47;;;;;;;;;;6277385;22;20016;-82
2022/03/11 14:45:38;;;;;;;8.55;4.75;;;;;;;;;;6276785;22;20024;-82
2022/03/11 14:48:26;;;;;;;9.32;3.95;;;;;;;;;;6275959;22;20077;-82
2022/03/11 14:50:57;;;;;;;10.68;4.63;;;;;;;;;;6276632;22;20034;-82